createdAt,value
2023-09-06T04:03:09.207Z,100.00
2023-09-06T04:05:38.715Z,100.00
2023-09-06T04:08:08.303Z,100.00
2023-09-06T04:10:41.633Z,100.00
2023-09-06T04:13:10.611Z,100.00
2023-09-06T04:15:39.119Z,100.00
2023-09-06T04:18:11.247Z,100.00
2023-09-06T04:20:45.815Z,100.00
2023-09-06T04:23:15.010Z,100.00
2023-09-06T04:25:47.469Z,100.00
2023-09-06T04:28:21.955Z,100.00
2023-09-06T04:30:53.653Z,100.00
2023-09-06T04:33:25.541Z,100.00
2023-09-06T04:35:58.787Z,100.00
2023-09-06T04:38:27.360Z,100.00
2023-09-06T04:41:00.227Z,100.00
2023-09-06T04:43:34.254Z,100.00
2023-09-06T04:46:03.551Z,100.00
2023-09-06T04:48:35.461Z,100.00
2023-09-06T04:51:03.759Z,100.00
2023-09-06T04:53:31.291Z,100.00
2023-09-06T04:56:03.913Z,100.00
2023-09-06T04:58:39.022Z,100.00
2023-09-06T05:01:11.789Z,100.00
2023-09-06T05:03:41.907Z,100.00
2023-09-06T05:06:09.517Z,100.00
2023-09-06T05:08:37.431Z,100.00
2023-09-06T05:11:25.405Z,100.00
2023-09-06T05:13:53.751Z,100.00
2023-09-06T05:16:23.520Z,100.00
2023-09-06T05:18:51.222Z,100.00
2023-09-06T05:21:22.766Z,100.00
2023-09-06T05:23:50.872Z,100.00
2023-09-06T05:26:18.301Z,100.00
2023-09-06T05:28:49.872Z,100.00
2023-09-06T05:31:19.682Z,100.00
2023-09-06T05:33:48.859Z,100.00
2023-09-06T05:36:18.482Z,100.00
2023-09-06T05:38:45.853Z,100.00
2023-09-06T05:41:14.518Z,100.00
2023-09-06T05:43:44.420Z,100.00
2023-09-06T05:46:25.851Z,100.00
2023-09-06T05:49:01.915Z,100.00
2023-09-06T05:51:34.659Z,100.00
2023-09-06T05:54:04.434Z,100.00
2023-09-06T05:56:34.775Z,100.00
2023-09-06T05:59:02.176Z,100.00
2023-09-06T06:01:30.039Z,100.00
2023-09-06T06:03:57.548Z,100.00
2023-09-06T06:06:24.998Z,100.00
2023-09-06T06:08:52.462Z,100.00
2023-09-06T06:11:21.655Z,100.00
2023-09-06T06:14:00.300Z,100.00
2023-09-06T06:16:36.543Z,100.00
2023-09-06T06:19:04.438Z,100.00
2023-09-06T06:21:32.744Z,100.00
2023-09-06T06:24:00.218Z,100.00
2023-09-06T06:26:28.229Z,100.00
2023-09-06T06:28:55.726Z,100.00
2023-09-06T06:31:23.455Z,100.00
2023-09-06T06:33:51.587Z,100.00
2023-09-06T06:36:18.932Z,100.00
2023-09-06T06:38:49.178Z,100.00
2023-09-06T06:41:27.165Z,100.00
2023-09-06T06:43:54.811Z,100.00
2023-09-06T06:46:26.886Z,100.00
2023-09-06T06:48:55.447Z,100.00
2023-09-06T06:51:23.666Z,100.00
2023-09-06T06:53:51.109Z,100.00
2023-09-06T06:56:22.986Z,100.00
2023-09-06T06:58:50.647Z,100.00
2023-09-06T07:01:18.837Z,100.00
2023-09-06T07:03:47.503Z,100.00
2023-09-06T07:06:15.361Z,100.00
2023-09-06T07:08:43.028Z,100.00
2023-09-06T07:11:12.332Z,100.00
2023-09-06T07:13:41.496Z,100.00
2023-09-06T07:16:10.711Z,100.00
2023-09-06T07:18:38.294Z,100.00
2023-09-06T07:21:05.646Z,100.00
2023-09-06T07:23:33.223Z,100.00
2023-09-06T07:26:01.076Z,100.00
2023-09-06T07:28:37.354Z,100.00
2023-09-06T07:31:05.368Z,100.00
2023-09-06T07:33:32.810Z,100.00
2023-09-06T07:36:00.204Z,100.00
2023-09-06T07:38:28.066Z,100.00
2023-09-06T07:41:07.449Z,100.00
2023-09-06T07:43:37.422Z,100.00
2023-09-06T07:46:09.949Z,100.00
2023-09-06T07:48:40.239Z,100.00
2023-09-06T07:51:09.568Z,100.00
2023-09-06T07:53:37.447Z,100.00
2023-09-06T07:56:07.224Z,100.00
2023-09-06T07:58:34.886Z,100.00
2023-09-06T08:01:16.828Z,100.00
2023-09-06T08:03:46.158Z,100.00
2023-09-06T08:06:15.475Z,100.00
2023-09-06T08:08:44.929Z,100.00
2023-09-06T08:11:12.581Z,100.00
2023-09-06T08:13:42.636Z,100.00
2023-09-06T08:16:13.393Z,100.00
2023-09-06T08:18:41.765Z,100.00
2023-09-06T08:21:09.951Z,100.00
2023-09-06T08:23:37.376Z,100.00
2023-09-06T08:26:05.338Z,100.00
2023-09-06T08:28:32.870Z,100.00
2023-09-06T08:31:02.973Z,100.00
2023-09-06T08:33:31.032Z,100.00
2023-09-06T08:35:59.785Z,100.00
2023-09-06T08:38:27.699Z,100.00
2023-09-06T08:40:55.708Z,100.00
2023-09-06T08:43:24.957Z,100.00
2023-09-06T08:45:52.958Z,100.00
2023-09-06T08:48:22.912Z,100.00
2023-09-06T08:50:52.600Z,100.00
2023-09-06T08:53:22.996Z,100.00
2023-09-06T08:55:50.626Z,100.00
2023-09-06T08:58:18.770Z,100.00
2023-09-06T09:00:47.328Z,100.00
2023-09-06T09:03:14.970Z,100.00
2023-09-06T09:05:42.387Z,100.00
2023-09-06T09:08:11.055Z,100.00
2023-09-06T09:10:38.461Z,100.00
2023-09-06T09:13:13.167Z,100.00
2023-09-06T09:15:41.502Z,100.00
2023-09-06T09:18:16.501Z,100.00
2023-09-06T09:20:45.080Z,100.00
2023-09-06T09:23:17.618Z,100.00
2023-09-06T09:25:50.892Z,100.00
2023-09-06T09:28:18.831Z,100.00
2023-09-06T09:30:47.685Z,100.00
2023-09-06T09:33:16.104Z,100.00
2023-09-06T09:35:45.153Z,100.00
2023-09-06T09:38:12.880Z,100.00
2023-09-06T09:43:11.152Z,99.20
2023-09-06T09:45:45.038Z,99.78
2023-09-06T09:48:13.433Z,97.17
2023-09-06T09:50:42.881Z,96.06
2023-09-06T09:53:25.311Z,97.21
2023-09-06T09:55:54.820Z,100.00
2023-09-06T09:58:24.270Z,100.00
2023-09-06T10:00:53.512Z,95.47
2023-09-06T10:03:22.949Z,96.04
2023-09-06T10:05:51.157Z,94.81
2023-09-06T10:08:20.036Z,92.86
2023-09-06T10:10:47.839Z,90.33
2023-09-06T10:13:16.571Z,90.25
2023-09-06T10:15:45.321Z,90.10
2023-09-06T10:18:13.528Z,91.79
2023-09-06T10:20:42.205Z,89.47
2023-09-06T10:23:10.657Z,86.28
2023-09-06T10:25:43.247Z,89.21
2023-09-06T10:28:10.658Z,90.53
2023-09-06T10:30:46.482Z,90.63
2023-09-06T10:33:39.644Z,82.66
2023-09-06T10:36:10.151Z,85.44
2023-09-06T10:39:03.139Z,86.57
2023-09-06T10:41:31.096Z,84.30
2023-09-06T10:44:05.983Z,78.54
2023-09-06T10:46:37.561Z,81.46
2023-09-06T10:49:26.886Z,82.98
2023-09-06T10:52:02.780Z,82.81
2023-09-06T10:54:38.925Z,83.23
2023-09-06T10:57:09.121Z,81.50
2023-09-06T10:59:40.901Z,79.83
2023-09-06T11:02:26.624Z,78.46
2023-09-06T11:05:06.988Z,81.14
2023-09-06T11:07:49.353Z,77.39
2023-09-06T11:10:26.266Z,78.28
2023-09-06T11:12:56.368Z,75.04
2023-09-06T11:15:25.026Z,75.71
2023-09-06T11:17:58.621Z,72.38
2023-09-06T11:20:27.420Z,74.93
2023-09-06T11:22:59.843Z,68.66
2023-09-06T11:25:29.169Z,73.23
2023-09-06T11:28:02.032Z,72.20
2023-09-06T11:30:33.350Z,66.43
2023-09-06T11:33:01.113Z,71.21
2023-09-06T11:35:36.175Z,70.89
2023-09-06T11:38:05.516Z,69.60
2023-09-06T11:40:36.134Z,63.36
2023-09-06T11:43:06.400Z,62.28
2023-09-06T11:45:34.321Z,64.16
2023-09-06T11:48:09.106Z,66.38
2023-09-06T11:50:39.729Z,63.73
2023-09-06T11:53:11.543Z,64.80
2023-09-06T11:55:42.873Z,60.08
2023-09-06T11:58:18.270Z,65.54
2023-09-06T12:00:51.702Z,64.16
2023-09-06T12:03:27.507Z,66.87
2023-09-06T12:05:57.593Z,67.08
2023-09-06T12:08:25.613Z,62.86
2023-09-06T12:10:55.941Z,60.77
2023-09-06T12:13:31.987Z,60.92
2023-09-06T12:16:00.162Z,61.57
2023-09-06T12:18:30.233Z,63.09
2023-09-06T12:20:59.085Z,61.12
2023-09-06T12:23:30.563Z,58.56
2023-09-06T12:25:59.676Z,58.08
2023-09-06T12:28:29.378Z,61.61
2023-09-06T12:31:07.777Z,58.93
2023-09-06T12:33:40.502Z,56.66
2023-09-06T12:36:12.059Z,55.35
2023-09-06T12:38:40.280Z,53.10
2023-09-06T12:41:07.898Z,52.28
2023-09-06T12:43:36.921Z,54.19
2023-09-06T12:46:13.474Z,52.26
2023-09-06T12:48:46.222Z,51.25
2023-09-06T12:51:13.758Z,55.53
2023-09-06T12:53:41.798Z,53.61
2023-09-06T12:56:13.049Z,51.58
2023-09-06T12:58:42.433Z,54.39
2023-09-06T13:01:12.202Z,51.52
2023-09-06T13:03:40.927Z,52.70
2023-09-06T13:06:09.660Z,50.87
2023-09-06T13:08:37.864Z,52.21
2023-09-06T13:11:05.944Z,49.94
2023-09-06T13:13:33.937Z,51.05
2023-09-06T13:16:01.379Z,52.13
2023-09-06T13:18:30.273Z,54.35
2023-09-06T13:20:58.794Z,48.41
2023-09-06T13:23:26.562Z,47.91
2023-09-06T13:25:54.003Z,48.57
2023-09-06T13:28:21.823Z,50.05
2023-09-06T13:30:49.486Z,49.48
2023-09-06T13:33:17.036Z,49.10
2023-09-06T13:35:44.518Z,47.45
2023-09-06T13:38:13.455Z,49.79
2023-09-06T13:40:40.858Z,50.37
2023-09-06T13:43:08.891Z,49.88
2023-09-06T13:45:36.899Z,47.86
2023-09-06T13:48:04.929Z,47.99
2023-09-06T13:50:32.863Z,50.16
2023-09-06T13:53:00.398Z,49.75
2023-09-06T13:55:27.803Z,49.32
2023-09-06T13:57:55.220Z,49.27
2023-09-06T14:00:23.296Z,47.04
2023-09-06T14:02:51.277Z,48.00
2023-09-06T14:05:19.125Z,47.12
2023-09-06T14:07:46.531Z,46.55
2023-09-06T14:10:13.955Z,45.33
2023-09-06T14:12:41.268Z,45.25
2023-09-06T14:15:09.652Z,45.24
2023-09-06T14:17:37.334Z,41.94
2023-09-06T14:20:07.235Z,33.56
2023-09-06T14:22:34.762Z,33.79
2023-09-06T14:25:02.082Z,28.81
2023-09-06T14:27:29.542Z,27.55
2023-09-06T14:29:58.808Z,26.05
2023-09-06T14:32:26.437Z,26.41
2023-09-06T14:34:54.341Z,25.52
2023-09-06T14:37:22.432Z,25.31
2023-09-06T14:39:50.296Z,24.85
2023-09-06T14:42:17.640Z,21.76
2023-09-06T14:44:45.124Z,20.39
2023-09-06T14:47:13.770Z,19.86
2023-09-06T14:49:41.904Z,20.63
2023-09-06T14:52:09.264Z,19.29
2023-09-06T14:54:37.213Z,19.92
2023-09-06T14:57:05.617Z,19.33
2023-09-06T14:59:33.018Z,19.64
2023-09-06T15:02:00.587Z,21.06
2023-09-06T15:04:28.188Z,19.27
2023-09-06T15:06:59.837Z,18.20
2023-09-06T15:09:28.221Z,18.29
2023-09-06T15:11:56.318Z,18.81
2023-09-06T15:14:25.002Z,19.46
2023-09-06T15:16:52.934Z,19.29
2023-09-06T15:19:20.820Z,17.34
2023-09-06T15:21:48.797Z,19.13
2023-09-06T15:24:17.697Z,19.69
2023-09-06T15:26:45.127Z,18.24
2023-09-06T15:29:13.014Z,17.54
2023-09-06T15:31:40.475Z,18.01
2023-09-06T15:34:08.282Z,20.19
2023-09-06T15:36:35.867Z,21.52
2023-09-06T15:39:04.501Z,21.68
2023-09-06T15:41:33.725Z,22.43
2023-09-06T15:44:06.153Z,21.72
2023-09-06T15:46:34.713Z,20.07
2023-09-06T15:49:02.266Z,21.71
2023-09-06T15:51:29.844Z,22.27
2023-09-06T15:53:57.869Z,22.19
2023-09-06T15:56:26.173Z,19.81
2023-09-06T15:58:55.833Z,19.43
2023-09-06T16:01:24.897Z,19.95
2023-09-06T16:03:52.336Z,19.12
2023-09-06T16:06:20.133Z,20.74
2023-09-06T16:08:47.993Z,21.32
2023-09-06T16:11:16.094Z,22.93
2023-09-06T16:13:43.551Z,22.69
2023-09-06T16:16:10.978Z,22.44
2023-09-06T16:18:38.436Z,22.97
2023-09-06T16:21:06.862Z,22.72
2023-09-06T16:23:34.763Z,23.19
2023-09-06T16:26:10.480Z,24.39
2023-09-06T16:28:38.637Z,24.48
2023-09-06T16:31:06.514Z,24.19
2023-09-06T16:33:36.699Z,24.89
2023-09-06T16:36:07.560Z,24.63
2023-09-06T16:38:35.516Z,23.77
2023-09-06T16:41:03.621Z,24.80
2023-09-06T16:43:31.246Z,27.16
2023-09-06T16:45:58.812Z,25.73
2023-09-06T16:48:26.877Z,25.83
2023-09-06T16:50:54.842Z,25.82
2023-09-06T16:53:22.222Z,31.34
2023-09-06T16:55:49.706Z,35.69
2023-09-06T16:58:17.656Z,37.43
2023-09-06T17:00:45.517Z,40.21
2023-09-06T17:03:13.100Z,40.84
2023-09-06T17:05:40.968Z,42.21
2023-09-06T17:08:08.602Z,43.64
2023-09-06T17:10:36.079Z,44.40
2023-09-06T17:13:03.984Z,45.63
2023-09-06T17:15:32.533Z,46.65
2023-09-06T17:18:00.582Z,46.92
2023-09-06T17:20:28.159Z,47.67
2023-09-06T17:22:58.783Z,48.24
2023-09-06T17:25:26.787Z,49.14
2023-09-06T17:27:54.675Z,51.24
2023-09-06T17:30:23.946Z,50.84
2023-09-06T17:33:15.460Z,52.17
2023-09-06T17:35:45.346Z,52.95
2023-09-06T17:38:14.845Z,53.70
2023-09-06T17:40:48.252Z,54.97
2023-09-06T17:43:17.570Z,57.89
2023-09-06T17:45:48.016Z,59.62
2023-09-06T17:48:17.958Z,59.74
2023-09-06T17:50:51.952Z,61.11
2023-09-06T17:53:22.208Z,61.63
2023-09-06T17:55:51.401Z,61.88
2023-09-06T17:58:19.200Z,67.88
2023-09-06T18:00:49.372Z,100.00
2023-09-06T18:03:19.295Z,100.00
2023-09-06T18:05:56.263Z,100.00
2023-09-06T18:08:27.563Z,100.00
2023-09-06T18:10:56.197Z,100.00
2023-09-06T18:13:24.275Z,100.00
2023-09-06T18:15:53.926Z,100.00
2023-09-06T18:18:21.443Z,100.00
2023-09-06T18:20:49.269Z,100.00
2023-09-06T18:23:20.100Z,100.00
2023-09-06T18:25:47.554Z,100.00
2023-09-06T18:28:14.949Z,100.00
2023-09-06T18:30:46.336Z,100.00
2023-09-06T18:33:15.679Z,100.00
2023-09-06T18:35:46.235Z,100.00
2023-09-06T18:38:17.195Z,100.00
2023-09-06T18:40:46.224Z,100.00
2023-09-06T18:43:13.995Z,100.00
2023-09-06T18:45:42.432Z,100.00
2023-09-06T18:48:15.327Z,100.00
2023-09-06T18:50:46.431Z,100.00
2023-09-06T18:53:14.835Z,100.00
2023-09-06T18:55:45.949Z,100.00
2023-09-06T18:58:13.785Z,100.00
2023-09-06T19:00:42.594Z,100.00
2023-09-06T19:03:14.027Z,100.00
2023-09-06T19:05:43.253Z,100.00
2023-09-06T19:08:16.311Z,100.00
2023-09-06T19:10:45.339Z,100.00
2023-09-06T19:13:15.530Z,100.00
2023-09-06T19:15:48.218Z,100.00
2023-09-06T19:18:19.058Z,100.00
2023-09-06T19:20:47.069Z,100.00
2023-09-06T19:23:21.847Z,100.00
2023-09-06T19:25:55.244Z,100.00
2023-09-06T19:28:24.642Z,100.00
2023-09-06T19:30:56.754Z,100.00
2023-09-06T19:33:27.056Z,100.00
2023-09-06T19:35:55.816Z,100.00
2023-09-06T19:38:23.727Z,100.00
2023-09-06T19:40:54.389Z,100.00
2023-09-06T19:43:23.337Z,100.00
2023-09-06T19:45:55.470Z,100.00
2023-09-06T19:48:24.827Z,100.00
2023-09-06T19:50:52.911Z,100.00
2023-09-06T19:53:21.328Z,100.00
2023-09-06T19:55:49.446Z,100.00
2023-09-06T19:58:17.277Z,100.00
2023-09-06T20:00:45.139Z,100.00
2023-09-06T20:03:14.007Z,100.00
2023-09-06T20:05:41.486Z,100.00
2023-09-06T20:08:09.360Z,100.00
2023-09-06T20:10:47.227Z,100.00
2023-09-06T20:13:15.237Z,100.00
2023-09-06T20:15:43.026Z,100.00
2023-09-06T20:18:11.143Z,100.00
2023-09-06T20:20:40.210Z,100.00
2023-09-06T20:23:09.640Z,100.00
2023-09-06T20:25:37.112Z,100.00
2023-09-06T20:28:05.520Z,100.00
2023-09-06T20:30:38.002Z,100.00
2023-09-06T20:33:05.621Z,100.00
2023-09-06T20:35:33.117Z,100.00
2023-09-06T20:38:00.810Z,100.00
2023-09-06T20:40:28.656Z,100.00
2023-09-06T20:42:56.341Z,100.00
2023-09-06T20:45:23.831Z,100.00
2023-09-06T20:47:51.318Z,100.00
2023-09-06T20:50:20.238Z,100.00
2023-09-06T20:52:48.070Z,100.00
2023-09-06T20:55:15.577Z,100.00
2023-09-06T20:57:43.407Z,100.00
2023-09-06T21:00:10.992Z,100.00
2023-09-06T21:02:38.919Z,100.00
2023-09-06T21:05:06.689Z,100.00
2023-09-06T21:07:35.041Z,100.00
2023-09-06T21:10:02.638Z,100.00
2023-09-06T21:12:33.330Z,100.00
2023-09-06T21:15:00.838Z,100.00
2023-09-06T21:17:28.511Z,100.00
2023-09-06T21:19:56.133Z,100.00
2023-09-06T21:22:23.549Z,100.00
2023-09-06T21:24:51.129Z,100.00
2023-09-06T21:27:18.706Z,100.00
2023-09-06T21:29:46.641Z,100.00
2023-09-06T21:32:14.400Z,100.00
2023-09-06T21:34:42.331Z,100.00
2023-09-06T21:37:10.266Z,100.00
2023-09-06T21:39:37.720Z,100.00
2023-09-06T21:42:08.438Z,100.00
2023-09-06T21:44:38.766Z,100.00
